PWSweather.com
Personal Weather Stations
Station Observations
ISOUTHAE3
Liopessi Beach, Port Of Gavrio, Island Of AndrosGR 84501

Liopessi Beach, Port Of GavrioIsland Of AndrosGR 84501

Lat: 37.881379, Lon: 24.745103

Elevation: 52

Station Type: DAVIS Vantage Pro2

http://users.otenet.gr/~vbb/rt.html

Latest ConditionsUpdated 3:30:00 AM GMT+02:02 Friday, Aug 17, 2018
Currently Today's Max Today's Min Today's Average
Temperature 76.5°F24.7°C 77.5°F25.3°C 75.9°F24.4°C 76.6°F24.8°C
Dew Point 61.5°F16.4°C 65.7°F18.7°C 58.8°F14.9°C 63.0°F17.2°C
Winds 2.0 mph NW3.2 kmh NW 3.0 mph -4.8 kmh - - 1.8 mph 2.9 kmh
Wind Gusts 4.0 mph6.4 kmh 5.0 mph8.0 kmh - -
Humidity 60% 69% 55% 63%
Pressure 29.79 in1008.8 mb 29.81 in1009.5 mb 29.79 in1008.8 mb -
Hour Temp Dew Point Humidity Winds Wind Gusts Pressure Precip Precip Rate Daily Precip Total
03:30 AM 76.5°F24.7°C 61.5°F16.4°C 60% 2.0 mph NW3.2 kmh NW 4.0 mph6.4 kmh 29.79 in1008.8 mb 0.00 in0.0 mm 0.00 in0.0 mm 0.00 in0.0 mm
03:20 AM 76.3°F24.6°C 61.3°F16.3°C 60% 2.0 mph NW3.2 kmh NW 4.0 mph6.4 kmh 29.79 in1008.8 mb 0.00 in0.0 mm 0.00 in0.0 mm 0.00 in0.0 mm
03:10 AM 76.3°F24.6°C 63.1°F17.3°C 64% 2.0 mph NW3.2 kmh NW 3.0 mph4.8 kmh 29.79 in1008.8 mb 0.00 in0.0 mm 0.00 in0.0 mm 0.00 in0.0 mm
03:00 AM 76.3°F24.6°C 64.0°F17.8°C 66% 1.0 mph NW1.6 kmh NW 2.0 mph3.2 kmh 29.79 in1008.8 mb 0.00 in0.0 mm 0.00 in0.0 mm 0.00 in0.0 mm
02:50 AM 76.3°F24.6°C 64.0°F17.8°C 66% 2.0 mph NW3.2 kmh NW 4.0 mph6.4 kmh 29.79 in1008.8 mb 0.00 in0.0 mm 0.00 in0.0 mm 0.00 in0.0 mm
02:40 AM 76.6°F24.8°C 63.7°F17.6°C 64% 1.0 mph 1.6 kmh 2.0 mph3.2 kmh 29.80 in1009.1 mb 0.00 in0.0 mm 0.00 in0.0 mm 0.00 in0.0 mm
02:30 AM 77.0°F25.0°C 63.9°F17.7°C 64% 2.0 mph 3.2 kmh 3.0 mph4.8 kmh 29.80 in1009.1 mb 0.00 in0.0 mm 0.00 in0.0 mm 0.00 in0.0 mm
02:20 AM 77.2°F25.1°C 63.7°F17.6°C 63% Calm Calm 2.0 mph3.2 kmh 29.80 in1009.1 mb 0.00 in0.0 mm 0.00 in0.0 mm 0.00 in0.0 mm
02:10 AM 77.4°F25.2°C 63.9°F17.7°C 63% 2.0 mph 3.2 kmh 5.0 mph8.0 kmh 29.80 in1009.1 mb 0.00 in0.0 mm 0.00 in0.0 mm 0.00 in0.0 mm
02:00 AM 77.5°F25.3°C 63.5°F17.5°C 62% 3.0 mph NNW4.8 kmh NNW 5.0 mph8.0 kmh 29.80 in1009.1 mb 0.00 in0.0 mm 0.00 in0.0 mm 0.00 in0.0 mm
01:50 AM 77.2°F25.1°C 62.6°F17.0°C 61% 3.0 mph NNW4.8 kmh NNW 4.0 mph6.4 kmh 29.80 in1009.1 mb 0.00 in0.0 mm 0.00 in0.0 mm 0.00 in0.0 mm
01:40 AM 76.6°F24.8°C 59.7°F15.4°C 56% 3.0 mph NNW4.8 kmh NNW 4.0 mph6.4 kmh 29.81 in1009.5 mb 0.00 in0.0 mm 0.00 in0.0 mm 0.00 in0.0 mm
01:30 AM 76.3°F24.6°C 58.8°F14.9°C 55% 3.0 mph NW4.8 kmh NW 4.0 mph6.4 kmh 29.81 in1009.5 mb 0.00 in0.0 mm 0.00 in0.0 mm 0.00 in0.0 mm
01:20 AM 75.9°F24.4°C 59.7°F15.4°C 57% 3.0 mph NW4.8 kmh NW 4.0 mph6.4 kmh 29.80 in1009.1 mb 0.00 in0.0 mm 0.00 in0.0 mm 0.00 in0.0 mm
01:10 AM 76.1°F24.5°C 60.8°F16.0°C 59% 2.0 mph NNW3.2 kmh NNW 3.0 mph4.8 kmh 29.80 in1009.1 mb 0.00 in0.0 mm 0.00 in0.0 mm 0.00 in0.0 mm
01:00 AM 76.6°F24.8°C 64.4°F18.0°C 66% 2.0 mph NNW3.2 kmh NNW 4.0 mph6.4 kmh 29.80 in1009.1 mb 0.00 in0.0 mm 0.00 in0.0 mm 0.00 in0.0 mm
12:50 AM 76.8°F24.9°C 65.5°F18.6°C 68% 2.0 mph NNW3.2 kmh NNW 5.0 mph8.0 kmh 29.80 in1009.1 mb 0.00 in0.0 mm 0.00 in0.0 mm 0.00 in0.0 mm
12:20 AM 76.5°F24.7°C 65.5°F18.6°C 69% 1.0 mph NNW1.6 kmh NNW 3.0 mph4.8 kmh 29.81 in1009.5 mb 0.00 in0.0 mm 0.00 in0.0 mm 0.00 in0.0 mm
12:11 AM 76.5°F24.7°C 65.5°F18.6°C 69% 1.0 mph NW1.6 kmh NW 3.0 mph4.8 kmh 29.81 in1009.5 mb 0.00 in0.0 mm 0.00 in0.0 mm 0.00 in0.0 mm
12:00 AM 76.6°F24.8°C 65.7°F18.7°C 69% Calm Calm 2.0 mph3.2 kmh 29.81 in1009.5 mb 0.00 in0.0 mm 0.00 in0.0 mm 0.00 in0.0 mm